createdAt,value
2018-08-31T00:02:13.343Z,83.86
2018-08-31T00:04:50.452Z,83.93
2018-08-31T00:09:39.823Z,85.40
2018-08-31T00:12:46.527Z,84.55
2018-08-31T00:15:15.128Z,85.24
2018-08-31T00:17:44.401Z,86.45
2018-08-31T00:20:14.164Z,88.28
2018-08-31T00:22:42.720Z,87.78
2018-08-31T00:26:24.659Z,86.30
2018-08-31T00:29:41.879Z,87.06
2018-08-31T00:33:22.324Z,86.43
2018-08-31T00:36:12.271Z,86.28
2018-08-31T00:39:07.759Z,88.51
2018-08-31T00:41:56.364Z,88.43
2018-08-31T00:44:36.384Z,88.29
2018-08-31T00:47:04.951Z,86.63
2018-08-31T00:49:33.415Z,85.06
2018-08-31T00:52:01.895Z,86.72
2018-08-31T00:54:30.363Z,88.02
2018-08-31T00:56:58.880Z,87.52
2018-08-31T00:59:27.635Z,88.52
2018-08-31T01:01:56.099Z,88.09
2018-08-31T01:04:24.543Z,87.71
2018-08-31T01:06:53.473Z,88.25
2018-08-31T01:09:21.930Z,87.52
2018-08-31T01:11:50.586Z,88.56
2018-08-31T01:14:19.152Z,88.92
2018-08-31T01:16:47.651Z,88.99
2018-08-31T01:19:16.171Z,89.19
2018-08-31T01:21:44.790Z,89.50
2018-08-31T01:24:13.319Z,88.70
2018-08-31T01:26:41.835Z,88.92
2018-08-31T01:29:10.479Z,87.98
2018-08-31T01:31:38.950Z,88.32
2018-08-31T01:34:07.403Z,88.11
2018-08-31T01:36:36.014Z,88.93
2018-08-31T01:39:05.611Z,88.51
2018-08-31T01:41:34.129Z,89.03
2018-08-31T01:44:02.768Z,87.75
2018-08-31T01:46:31.215Z,88.91
2018-08-31T01:48:59.683Z,88.60
2018-08-31T01:51:28.379Z,89.72
2018-08-31T01:53:56.951Z,89.63
2018-08-31T01:56:25.419Z,88.39
2018-08-31T01:58:54.148Z,88.36
2018-08-31T02:01:22.584Z,89.17
2018-08-31T02:03:51.099Z,89.59
2018-08-31T02:06:19.601Z,89.59
2018-08-31T02:08:53.427Z,90.16
2018-08-31T02:11:21.905Z,88.29
2018-08-31T02:13:50.527Z,90.00
2018-08-31T02:16:19.081Z,91.68
2018-08-31T02:18:47.932Z,90.98
2018-08-31T02:21:16.379Z,90.71
2018-08-31T02:23:45.003Z,90.31
2018-08-31T02:26:13.467Z,89.80
2018-08-31T02:28:41.960Z,89.78
2018-08-31T02:31:10.455Z,89.74
2018-08-31T02:33:39.052Z,89.98
2018-08-31T02:36:07.654Z,90.34
2018-08-31T02:38:36.265Z,90.18
2018-08-31T02:41:05.149Z,89.35
2018-08-31T02:43:33.676Z,88.95
2018-08-31T02:46:02.227Z,89.19
2018-08-31T02:48:30.979Z,89.71
2018-08-31T02:50:59.432Z,89.79
2018-08-31T02:53:27.931Z,90.75
2018-08-31T02:55:56.674Z,91.23
2018-08-31T02:58:25.210Z,91.09
2018-08-31T03:00:53.739Z,90.97
2018-08-31T03:03:22.204Z,90.78
2018-08-31T03:05:50.724Z,90.81
2018-08-31T03:08:19.271Z,90.58
2018-08-31T03:10:47.819Z,90.30
2018-08-31T03:13:16.281Z,90.73
2018-08-31T03:15:44.790Z,88.84
2018-08-31T03:18:13.274Z,89.96
2018-08-31T03:20:41.691Z,90.62
2018-08-31T03:23:10.271Z,89.69
2018-08-31T03:25:39.112Z,88.58
2018-08-31T03:28:07.552Z,89.67
2018-08-31T03:30:36.152Z,89.71
2018-08-31T03:33:04.659Z,89.58
2018-08-31T03:35:33.174Z,90.10
2018-08-31T03:38:01.643Z,89.73
2018-08-31T03:40:30.332Z,89.18
2018-08-31T03:42:58.783Z,89.19
2018-08-31T03:45:27.652Z,90.31
2018-08-31T03:47:56.326Z,90.85
2018-08-31T03:50:24.816Z,90.46
2018-08-31T03:52:53.419Z,88.44
2018-08-31T03:55:22.039Z,88.94
2018-08-31T03:57:50.610Z,90.29
2018-08-31T04:00:19.079Z,90.46
2018-08-31T04:02:47.847Z,89.92
2018-08-31T04:05:16.395Z,91.28
2018-08-31T04:07:44.920Z,90.80
2018-08-31T04:10:13.576Z,90.02
2018-08-31T04:12:42.107Z,90.12
2018-08-31T04:15:11.032Z,90.66
2018-08-31T04:17:39.688Z,89.74
2018-08-31T04:20:09.019Z,90.90
2018-08-31T04:22:37.494Z,90.27
2018-08-31T04:25:06.075Z,91.21
2018-08-31T04:27:34.551Z,91.16
2018-08-31T04:30:03.106Z,88.83
2018-08-31T04:32:31.568Z,89.88
2018-08-31T04:35:00.165Z,90.43
2018-08-31T04:37:28.671Z,89.50
2018-08-31T04:39:57.357Z,89.64
2018-08-31T04:42:25.827Z,90.00
2018-08-31T04:44:54.345Z,90.34
2018-08-31T04:47:23.259Z,90.90
2018-08-31T04:49:51.755Z,91.32
2018-08-31T04:52:20.215Z,91.24
2018-08-31T04:54:48.942Z,90.96
2018-08-31T04:57:17.339Z,91.19
2018-08-31T04:59:45.787Z,91.20
2018-08-31T05:02:14.338Z,90.13
2018-08-31T05:04:42.810Z,89.45
2018-08-31T05:07:11.303Z,89.43
2018-08-31T05:09:40.052Z,88.64
2018-08-31T05:12:08.532Z,88.40
2018-08-31T05:14:37.071Z,88.33
2018-08-31T05:17:05.628Z,88.07
2018-08-31T05:19:34.091Z,89.08
2018-08-31T05:22:02.597Z,89.82
2018-08-31T05:24:31.332Z,90.08
2018-08-31T05:26:59.866Z,90.21
2018-08-31T05:29:28.353Z,89.71
2018-08-31T05:31:57.011Z,89.03
2018-08-31T05:34:25.587Z,89.12
2018-08-31T05:36:54.167Z,87.95
2018-08-31T05:39:22.639Z,88.70
2018-08-31T05:41:51.159Z,88.59
2018-08-31T05:44:19.655Z,88.49
2018-08-31T05:46:48.270Z,87.62
2018-08-31T05:49:16.706Z,87.85
2018-08-31T05:51:45.171Z,87.94
2018-08-31T05:54:13.758Z,88.24
2018-08-31T05:56:42.215Z,88.36
2018-08-31T05:59:10.655Z,88.77
2018-08-31T06:01:39.288Z,89.19
2018-08-31T06:04:08.301Z,89.21
2018-08-31T06:06:36.767Z,87.94
2018-08-31T06:09:08.178Z,87.51
2018-08-31T06:11:36.649Z,86.65
2018-08-31T06:14:05.172Z,86.17
2018-08-31T06:16:33.784Z,86.31
2018-08-31T06:19:02.667Z,86.22
2018-08-31T06:21:31.223Z,86.64
2018-08-31T06:23:59.987Z,87.05
2018-08-31T06:26:28.532Z,87.63
2018-08-31T06:28:57.048Z,87.24
2018-08-31T06:31:25.674Z,85.96
2018-08-31T06:33:54.136Z,85.83
2018-08-31T06:36:22.556Z,85.41
2018-08-31T06:38:51.265Z,83.12
2018-08-31T06:41:19.714Z,83.40
2018-08-31T06:43:48.119Z,83.97
2018-08-31T06:46:16.690Z,83.37
2018-08-31T06:48:45.186Z,82.76
2018-08-31T06:51:13.800Z,81.71
2018-08-31T06:53:42.526Z,81.06
2018-08-31T06:56:11.076Z,81.38
2018-08-31T06:58:39.519Z,80.88
2018-08-31T07:01:08.112Z,81.51
2018-08-31T07:03:36.557Z,81.07
2018-08-31T07:06:05.007Z,79.47
2018-08-31T07:08:33.601Z,78.63
2018-08-31T07:11:02.038Z,76.64
2018-08-31T07:13:30.508Z,76.43
2018-08-31T07:15:59.017Z,74.91
2018-08-31T07:18:27.528Z,74.61
2018-08-31T07:20:56.114Z,73.37
2018-08-31T07:23:24.771Z,74.04
2018-08-31T07:25:53.231Z,73.09
2018-08-31T07:28:21.767Z,73.51
2018-08-31T07:30:50.496Z,72.38
2018-08-31T07:33:18.926Z,72.17
2018-08-31T07:35:47.527Z,71.90
2018-08-31T07:38:16.084Z,71.39
2018-08-31T07:40:44.556Z,69.57
2018-08-31T07:43:13.008Z,70.62
2018-08-31T07:45:41.612Z,70.66
2018-08-31T07:48:10.214Z,70.39
2018-08-31T07:50:38.663Z,70.07
2018-08-31T07:53:07.135Z,70.70
2018-08-31T07:55:35.599Z,71.21
2018-08-31T07:58:04.195Z,70.51
2018-08-31T08:00:32.941Z,69.70
2018-08-31T08:03:01.399Z,70.07
2018-08-31T08:05:29.852Z,69.67
2018-08-31T08:07:58.491Z,69.66
2018-08-31T08:10:26.971Z,70.15
2018-08-31T08:12:55.496Z,70.73
2018-08-31T08:15:24.067Z,68.40
2018-08-31T08:17:52.571Z,68.27
2018-08-31T08:20:21.109Z,67.96
2018-08-31T08:22:49.752Z,67.37
2018-08-31T08:25:18.311Z,66.91
2018-08-31T08:27:47.122Z,67.16
2018-08-31T08:30:15.990Z,66.58
2018-08-31T08:32:44.704Z,66.55
2018-08-31T08:35:13.179Z,65.74
2018-08-31T08:37:42.135Z,66.00
2018-08-31T08:40:10.684Z,64.97
2018-08-31T08:42:39.358Z,65.71
2018-08-31T08:45:08.083Z,65.75
2018-08-31T08:47:36.581Z,66.18
2018-08-31T08:50:05.595Z,64.08
2018-08-31T08:52:34.135Z,63.28
2018-08-31T08:55:02.585Z,64.18
2018-08-31T08:57:31.132Z,64.10
2018-08-31T08:59:59.912Z,63.19
2018-08-31T09:50:57.003Z,61.28
2018-08-31T09:53:25.466Z,63.10
2018-08-31T09:55:53.950Z,63.23
2018-08-31T09:58:22.639Z,62.51
2018-08-31T10:00:55.079Z,63.15
2018-08-31T10:03:25.014Z,62.94
2018-08-31T10:05:54.503Z,62.59
2018-08-31T10:08:24.718Z,61.03
2018-08-31T10:10:53.315Z,61.05
2018-08-31T10:13:22.007Z,60.44
2018-08-31T10:15:50.787Z,60.92
2018-08-31T10:18:19.285Z,60.83
2018-08-31T10:20:47.855Z,61.76
2018-08-31T10:23:16.477Z,61.35
2018-08-31T10:25:45.051Z,60.43
2018-08-31T10:28:13.597Z,60.63
2018-08-31T10:30:42.303Z,60.85
2018-08-31T10:33:11.189Z,61.12
2018-08-31T10:35:39.731Z,61.19
2018-08-31T10:38:08.258Z,60.25
2018-08-31T10:40:36.788Z,60.96
2018-08-31T10:43:05.532Z,59.44
2018-08-31T10:45:34.254Z,60.21
2018-08-31T10:48:02.977Z,60.12
2018-08-31T10:50:31.532Z,59.24
2018-08-31T10:53:00.244Z,58.85
2018-08-31T10:55:28.808Z,57.17
2018-08-31T10:57:57.375Z,57.98
2018-08-31T11:00:26.035Z,56.76
2018-08-31T11:02:54.678Z,56.66
2018-08-31T11:05:23.139Z,54.00
2018-08-31T11:07:51.655Z,54.09
2018-08-31T11:10:20.152Z,54.30
2018-08-31T11:12:48.785Z,55.48
2018-08-31T11:15:17.562Z,56.68
2018-08-31T11:17:46.019Z,55.70
2018-08-31T11:20:14.460Z,57.11
2018-08-31T11:22:42.954Z,57.69
2018-08-31T11:25:11.535Z,57.91
2018-08-31T11:27:40.168Z,57.80
2018-08-31T11:30:10.007Z,57.21
2018-08-31T11:32:39.379Z,56.95
2018-08-31T11:35:07.971Z,56.50
2018-08-31T11:37:36.438Z,57.04
2018-08-31T11:40:04.939Z,56.75
2018-08-31T11:42:33.407Z,56.10
2018-08-31T11:45:02.088Z,53.67
2018-08-31T11:47:30.471Z,52.83
2018-08-31T11:49:58.895Z,51.92
2018-08-31T11:52:27.460Z,50.96
2018-08-31T11:54:55.919Z,50.69
2018-08-31T11:57:24.394Z,51.26
2018-08-31T11:59:53.055Z,51.15
2018-08-31T12:02:21.747Z,50.98
2018-08-31T12:04:50.247Z,51.71
2018-08-31T12:07:18.850Z,50.25
2018-08-31T12:09:47.387Z,49.23
2018-08-31T12:12:15.854Z,49.11
2018-08-31T12:14:44.443Z,47.87
2018-08-31T12:17:12.958Z,48.51
2018-08-31T12:19:41.375Z,47.42
2018-08-31T12:22:09.911Z,47.50
2018-08-31T12:24:38.325Z,47.44
2018-08-31T12:27:06.811Z,47.50
2018-08-31T12:29:35.590Z,46.97
2018-08-31T12:32:04.163Z,46.98
2018-08-31T12:34:32.575Z,47.63
2018-08-31T12:37:01.180Z,47.84
2018-08-31T12:39:29.603Z,47.47
2018-08-31T12:41:58.139Z,46.89
2018-08-31T12:44:26.639Z,46.67
2018-08-31T12:46:55.204Z,46.51
2018-08-31T12:49:23.687Z,47.13
2018-08-31T12:51:52.199Z,46.78
2018-08-31T12:54:20.690Z,45.11
2018-08-31T12:56:49.167Z,44.58
2018-08-31T12:59:17.715Z,44.18
2018-08-31T13:01:46.172Z,45.23
2018-08-31T13:04:14.654Z,46.18
2018-08-31T13:06:43.223Z,46.66
2018-08-31T13:09:11.693Z,46.03
2018-08-31T13:11:40.095Z,45.83
2018-08-31T13:14:08.539Z,45.90
2018-08-31T13:16:36.971Z,44.76
2018-08-31T13:19:05.739Z,45.48
2018-08-31T13:21:34.530Z,44.09
2018-08-31T13:24:05.831Z,43.76
2018-08-31T13:26:34.335Z,42.97
2018-08-31T13:29:02.782Z,43.85
2018-08-31T13:31:31.450Z,43.47
2018-08-31T13:34:00.339Z,43.41
2018-08-31T13:36:28.760Z,43.87
2018-08-31T13:38:57.234Z,43.54
2018-08-31T13:41:25.734Z,44.05
2018-08-31T13:43:54.287Z,42.77
2018-08-31T13:46:22.734Z,42.23
2018-08-31T13:48:51.653Z,42.81
2018-08-31T13:51:20.233Z,42.27
2018-08-31T13:53:48.717Z,44.20
2018-08-31T13:56:17.323Z,44.38
2018-08-31T13:58:52.044Z,44.39
2018-08-31T14:01:20.643Z,43.66
2018-08-31T14:03:51.032Z,43.33
2018-08-31T14:06:22.722Z,44.08
2018-08-31T14:08:51.228Z,44.72
2018-08-31T14:11:20.019Z,46.05
2018-08-31T14:13:48.827Z,44.20
2018-08-31T14:16:17.362Z,45.61
2018-08-31T14:18:46.011Z,45.47
2018-08-31T14:21:14.651Z,45.33
2018-08-31T14:23:43.303Z,44.61
2018-08-31T14:26:11.834Z,44.93
2018-08-31T14:28:40.310Z,44.81
2018-08-31T14:31:08.767Z,45.26
2018-08-31T14:33:37.220Z,45.97
2018-08-31T14:36:06.044Z,44.66
2018-08-31T14:38:34.455Z,45.26
2018-08-31T14:41:02.854Z,42.53
2018-08-31T14:43:31.470Z,43.49
2018-08-31T14:45:59.902Z,42.99
2018-08-31T14:48:28.396Z,43.94
2018-08-31T14:50:57.266Z,43.93
2018-08-31T14:53:25.683Z,44.03
2018-08-31T14:55:54.211Z,44.74
2018-08-31T14:58:23.001Z,43.93
2018-08-31T15:00:51.471Z,44.28
2018-08-31T15:03:19.866Z,44.89
2018-08-31T15:05:48.513Z,44.92
2018-08-31T15:08:17.003Z,45.08
2018-08-31T15:10:45.571Z,42.69
2018-08-31T15:13:14.063Z,43.48
2018-08-31T15:15:42.501Z,43.13
2018-08-31T15:18:11.050Z,42.16
2018-08-31T15:20:39.827Z,41.24
2018-08-31T15:23:08.391Z,41.19
2018-08-31T15:25:36.998Z,42.60
2018-08-31T15:28:05.560Z,42.57
2018-08-31T15:30:33.999Z,41.17
2018-08-31T15:33:02.418Z,42.25
2018-08-31T15:35:31.130Z,43.21
2018-08-31T15:37:59.579Z,42.43
2018-08-31T15:40:28.222Z,41.79
2018-08-31T15:42:56.958Z,42.82
2018-08-31T15:45:25.671Z,43.68
2018-08-31T15:47:54.120Z,43.02
2018-08-31T15:50:22.764Z,42.90
2018-08-31T15:52:51.282Z,43.32
2018-08-31T15:55:19.765Z,43.30
2018-08-31T15:57:48.192Z,43.41
2018-08-31T16:00:16.679Z,43.48
2018-08-31T16:02:45.151Z,43.10
2018-08-31T16:05:13.606Z,42.72
2018-08-31T16:07:42.131Z,43.11
2018-08-31T16:10:10.675Z,43.73
2018-08-31T16:12:39.404Z,44.23
2018-08-31T16:15:07.955Z,44.13
2018-08-31T16:17:36.481Z,43.79
2018-08-31T16:20:05.510Z,44.38
2018-08-31T16:22:34.019Z,44.44
2018-08-31T16:25:02.577Z,43.01
2018-08-31T16:27:31.267Z,43.95
2018-08-31T16:29:59.684Z,44.26
2018-08-31T16:32:28.323Z,43.75
2018-08-31T16:34:56.802Z,43.88
2018-08-31T16:37:25.310Z,44.25
2018-08-31T16:39:53.786Z,45.19
2018-08-31T16:42:22.660Z,44.88
2018-08-31T16:44:51.187Z,45.30
2018-08-31T16:47:19.690Z,45.25
2018-08-31T16:49:48.242Z,46.18
2018-08-31T16:52:16.791Z,46.44
2018-08-31T16:54:45.303Z,45.89
2018-08-31T16:57:13.926Z,45.58
2018-08-31T16:59:42.477Z,45.32
2018-08-31T17:02:10.935Z,45.58
2018-08-31T17:04:39.619Z,46.97
2018-08-31T17:07:08.046Z,46.83
2018-08-31T17:09:36.559Z,47.79
2018-08-31T17:12:05.517Z,47.61
2018-08-31T17:14:34.023Z,47.79
2018-08-31T17:17:03.281Z,48.44
2018-08-31T17:19:31.582Z,48.88
2018-08-31T17:22:00.028Z,48.74
2018-08-31T17:24:30.079Z,48.91
2018-08-31T17:27:07.352Z,48.90
2018-08-31T17:29:41.743Z,49.87
2018-08-31T17:32:15.808Z,49.73
2018-08-31T17:34:49.459Z,50.64
2018-08-31T17:37:23.351Z,51.00
2018-08-31T17:39:51.928Z,51.36
2018-08-31T17:42:20.490Z,51.01
2018-08-31T17:44:49.223Z,50.88
2018-08-31T17:47:17.883Z,51.32
2018-08-31T17:49:46.476Z,51.05
2018-08-31T17:52:15.021Z,52.50
2018-08-31T17:54:43.477Z,53.04
2018-08-31T17:57:12.077Z,54.02
2018-08-31T17:59:40.944Z,53.70
2018-08-31T18:02:09.939Z,54.11
2018-08-31T18:04:38.456Z,55.26
2018-08-31T18:07:06.999Z,54.69
2018-08-31T18:09:35.497Z,54.83
2018-08-31T18:12:03.938Z,54.39
2018-08-31T18:14:32.399Z,54.61
2018-08-31T18:17:01.131Z,55.10
2018-08-31T18:19:29.595Z,54.42
2018-08-31T18:21:58.118Z,54.46
2018-08-31T18:24:26.655Z,54.44
2018-08-31T18:26:55.222Z,54.35
2018-08-31T18:29:23.794Z,55.13
2018-08-31T18:31:52.194Z,54.79
2018-08-31T18:34:20.701Z,54.75
2018-08-31T18:36:49.248Z,54.79
2018-08-31T18:39:17.682Z,54.77
2018-08-31T18:41:46.199Z,54.36
2018-08-31T18:44:15.079Z,54.32
2018-08-31T18:46:43.620Z,53.50
2018-08-31T18:49:12.137Z,53.34
2018-08-31T18:51:40.789Z,53.66
2018-08-31T18:54:09.318Z,53.15
2018-08-31T18:56:37.832Z,53.06
2018-08-31T18:59:06.498Z,52.74
2018-08-31T19:01:35.085Z,52.09
2018-08-31T19:04:03.706Z,52.88
2018-08-31T19:06:32.435Z,53.09
2018-08-31T19:09:00.982Z,54.43
2018-08-31T19:11:29.533Z,57.67
2018-08-31T19:13:58.183Z,59.48
2018-08-31T19:16:26.774Z,59.27
2018-08-31T19:18:55.372Z,58.69
2018-08-31T19:21:24.072Z,58.93
2018-08-31T19:23:52.597Z,58.86
2018-08-31T19:26:21.216Z,58.80
2018-08-31T19:28:49.984Z,57.90
2018-08-31T19:31:18.935Z,57.37
2018-08-31T19:33:47.539Z,56.37
2018-08-31T19:36:16.352Z,57.07
2018-08-31T19:38:45.150Z,56.71
2018-08-31T19:41:13.739Z,56.20
2018-08-31T19:43:43.159Z,57.33
2018-08-31T19:46:11.894Z,55.91
2018-08-31T19:48:40.318Z,56.68
2018-08-31T19:51:08.975Z,57.09
2018-08-31T19:53:37.653Z,55.97
2018-08-31T19:56:06.344Z,56.62
2018-08-31T19:58:34.976Z,57.79
2018-08-31T20:01:03.534Z,57.71
2018-08-31T20:03:32.091Z,58.17
2018-08-31T20:06:00.763Z,58.21
2018-08-31T20:08:29.365Z,58.83
2018-08-31T20:10:58.165Z,58.39
2018-08-31T20:13:27.097Z,59.11
2018-08-31T20:15:55.871Z,59.25
2018-08-31T20:18:24.398Z,59.76
2018-08-31T20:20:53.152Z,60.11
2018-08-31T20:23:21.737Z,59.50
2018-08-31T20:25:50.267Z,60.35
2018-08-31T20:28:19.148Z,61.07
2018-08-31T20:30:48.586Z,62.27
2018-08-31T20:33:17.077Z,62.64
2018-08-31T20:35:45.768Z,62.31
2018-08-31T20:38:14.236Z,60.83
2018-08-31T20:40:42.990Z,59.76
2018-08-31T20:43:12.094Z,60.88
2018-08-31T20:45:40.915Z,63.12
2018-08-31T20:48:09.519Z,62.56
2018-08-31T20:50:38.243Z,62.81
2018-08-31T20:53:06.799Z,63.67
2018-08-31T20:55:35.496Z,62.73
2018-08-31T20:58:04.232Z,62.47
2018-08-31T21:00:32.939Z,63.04
2018-08-31T21:03:01.563Z,61.90
2018-08-31T21:05:37.023Z,61.90
2018-08-31T21:08:05.715Z,62.30
2018-08-31T21:10:34.338Z,62.62
2018-08-31T21:13:03.398Z,62.29
2018-08-31T21:15:31.894Z,62.85
2018-08-31T21:18:00.431Z,63.55
2018-08-31T21:20:29.068Z,63.57
2018-08-31T21:22:57.614Z,64.79
2018-08-31T21:25:26.008Z,65.81
2018-08-31T21:27:54.658Z,66.46
2018-08-31T21:30:23.102Z,66.28
2018-08-31T21:32:51.576Z,66.80
2018-08-31T21:35:20.400Z,67.51
2018-08-31T21:37:48.899Z,65.65
2018-08-31T21:40:17.302Z,66.85
2018-08-31T21:42:46.038Z,66.14
2018-08-31T21:45:14.492Z,66.87
2018-08-31T21:47:42.932Z,68.40
2018-08-31T21:50:11.478Z,69.37
2018-08-31T21:52:39.902Z,69.08
2018-08-31T21:55:08.495Z,69.64
2018-08-31T21:57:37.102Z,70.20
2018-08-31T22:00:08.942Z,71.47
2018-08-31T22:02:37.529Z,71.01
2018-08-31T22:05:06.111Z,72.11
2018-08-31T22:07:34.621Z,73.58
2018-08-31T22:10:03.406Z,73.91
2018-08-31T22:12:32.018Z,74.20
2018-08-31T22:15:00.527Z,74.46
2018-08-31T22:17:29.146Z,74.63
2018-08-31T22:19:57.671Z,75.59
2018-08-31T22:22:26.162Z,77.45
2018-08-31T22:24:54.838Z,76.54
2018-08-31T22:27:23.499Z,76.13
2018-08-31T22:29:51.966Z,76.73
2018-08-31T22:32:20.739Z,76.72
2018-08-31T22:34:49.200Z,74.08
2018-08-31T22:37:17.670Z,74.07
2018-08-31T22:39:46.175Z,75.83
2018-08-31T22:42:14.755Z,77.05
2018-08-31T22:44:43.256Z,78.66
2018-08-31T22:47:12.007Z,80.33
2018-08-31T22:49:40.411Z,81.61
2018-08-31T22:52:08.804Z,81.51
2018-08-31T22:54:37.494Z,80.65
2018-08-31T22:57:05.930Z,78.84
2018-08-31T22:59:34.346Z,79.25
2018-08-31T23:02:02.751Z,79.02
2018-08-31T23:04:31.186Z,79.08
2018-08-31T23:06:59.686Z,79.89
2018-08-31T23:09:28.344Z,79.31
2018-08-31T23:11:56.802Z,79.06
2018-08-31T23:14:25.283Z,79.13
2018-08-31T23:16:53.822Z,79.23
2018-08-31T23:19:22.358Z,79.54
2018-08-31T23:21:50.831Z,79.39
2018-08-31T23:24:19.563Z,79.86
2018-08-31T23:26:47.957Z,80.32
2018-08-31T23:29:16.378Z,81.20
2018-08-31T23:31:44.991Z,80.98
2018-08-31T23:34:13.506Z,80.46
2018-08-31T23:36:42.005Z,80.55
2018-08-31T23:39:10.778Z,80.38
2018-08-31T23:41:39.294Z,80.71
2018-08-31T23:44:07.830Z,81.00
2018-08-31T23:46:36.367Z,81.16
2018-08-31T23:49:04.887Z,81.30
2018-08-31T23:51:33.362Z,81.23
2018-08-31T23:54:01.836Z,81.29
2018-08-31T23:56:31.059Z,81.54
2018-08-31T23:58:59.499Z,81.14
